Time;durP1;ratioP1;P1;durP2;ratioP2;P2;SDS_P1;SDS_P2;PMS_P1;PMS_P2;Temp;Humidity;BMP_temperature;BMP_pressure;BME280_temperature;BME280_humidity;BME280_pressure;Samples;Min_cycle;Max_cycle;Signal;HPM_P1;HPM_P2
2023/01/19 00:01:07;;;;;;;22.40;19.90;;;1.50;89.50;;;;;;4997489;28;20172;-92
2023/01/19 00:03:34;;;;;;;19.37;17.40;;;1.50;89.30;;;;;;4995829;28;20400;-92
2023/01/19 00:06:04;;;;;;;23.80;19.90;;;1.50;89.40;;;;;;4995668;28;20189;-93
2023/01/19 00:08:30;;;;;;;24.23;21.17;;;1.50;89.40;;;;;;4996374;28;20197;-92
2023/01/19 00:10:55;;;;;;;25.53;18.37;;;1.50;89.50;;;;;;4995909;28;20245;-92
2023/01/19 00:13:21;;;;;;;24.63;20.47;;;1.60;89.20;;;;;;4995386;28;20288;-93
2023/01/19 00:15:46;;;;;;;20.37;17.80;;;1.60;89.30;;;;;;4996455;28;20275;-92
2023/01/19 00:18:12;;;;;;;20.63;18.47;;;1.50;89.40;;;;;;4997135;28;20181;-92
2023/01/19 00:20:41;;;;;;;18.53;16.63;;;1.60;89.40;;;;;;4996023;28;20305;-92
2023/01/19 00:23:07;;;;;;;18.30;16.43;;;1.60;89.00;;;;;;4995563;28;20205;-92
2023/01/19 00:25:33;;;;;;;24.77;22.17;;;1.60;89.00;;;;;;4995867;28;20659;-93
2023/01/19 00:27:58;;;;;;;19.03;17.03;;;1.60;89.10;;;;;;4995731;28;20207;-93
2023/01/19 00:30:24;;;;;;;29.90;23.77;;;1.60;89.00;;;;;;4996002;28;20523;-93
2023/01/19 00:32:52;;;;;;;27.20;20.80;;;1.60;89.00;;;;;;4995865;28;20182;-93
2023/01/19 00:35:18;;;;;;;21.57;18.23;;;1.60;88.90;;;;;;4996991;28;20198;-93
2023/01/19 00:37:44;;;;;;;25.87;19.53;;;1.60;88.90;;;;;;4995809;28;20550;-93
2023/01/19 00:40:12;;;;;;;27.37;19.20;;;1.60;88.90;;;;;;4996563;28;20182;-93
2023/01/19 00:42:43;;;;;;;19.17;16.53;;;1.60;88.90;;;;;;4997570;28;20182;-94
2023/01/19 00:45:20;;;;;;;18.33;16.17;;;1.70;88.60;;;;;;4996963;28;20185;-93
2023/01/19 00:47:47;;;;;;;24.23;17.77;;;1.70;88.50;;;;;;4997227;28;20190;-92
2023/01/19 00:50:15;;;;;;;22.20;17.13;;;1.70;88.70;;;;;;4995356;28;20174;-93
2023/01/19 00:52:42;;;;;;;18.33;16.43;;;1.70;88.60;;;;;;4998288;28;20177;-93
2023/01/19 00:55:09;;;;;;;29.07;22.67;;;1.80;88.30;;;;;;5001683;28;20337;-92
2023/01/19 00:57:35;;;;;;;25.10;18.57;;;1.80;88.50;;;;;;5002273;28;20184;-93
2023/01/19 01:00:01;;;;;;;22.50;16.57;;;1.80;88.40;;;;;;5005458;28;20197;-93
2023/01/19 01:02:29;;;;;;;20.63;15.63;;;1.80;88.30;;;;;;5002549;28;20186;-93
2023/01/19 01:04:55;;;;;;;22.30;17.70;;;1.80;88.40;;;;;;5005666;28;20260;-93
2023/01/19 01:07:21;;;;;;;32.20;24.00;;;1.80;88.50;;;;;;5008834;28;20214;-93
2023/01/19 01:09:47;;;;;;;22.07;18.60;;;1.70;88.50;;;;;;5019459;28;20174;-92
2023/01/19 01:12:13;;;;;;;22.27;19.87;;;1.80;88.50;;;;;;5019820;28;20188;-93
2023/01/19 01:14:38;;;;;;;21.30;19.03;;;1.80;88.30;;;;;;5020011;28;20195;-92
2023/01/19 01:17:04;;;;;;;20.93;18.77;;;1.80;88.50;;;;;;5017134;28;20240;-94
2023/01/19 01:19:30;;;;;;;22.23;19.77;;;1.80;88.40;;;;;;5010299;28;20201;-93
2023/01/19 01:21:56;;;;;;;22.80;17.63;;;1.80;88.40;;;;;;5009247;28;20206;-94
2023/01/19 01:24:21;;;;;;;29.03;21.53;;;1.80;88.30;;;;;;5007367;28;20214;-94
2023/01/19 01:26:47;;;;;;;21.00;17.67;;;1.80;88.50;;;;;;5005849;28;20186;-93
2023/01/19 01:29:14;;;;;;;20.63;18.17;;;1.80;88.30;;;;;;5004468;28;20322;-93
2023/01/19 01:31:39;;;;;;;18.47;16.67;;;1.80;88.30;;;;;;5003445;28;20222;-93
2023/01/19 01:34:06;;;;;;;17.13;15.33;;;1.80;88.40;;;;;;5000799;28;20284;-93
2023/01/19 01:36:32;;;;;;;17.73;15.97;;;1.80;88.50;;;;;;4999420;28;20193;-94
2023/01/19 01:38:59;;;;;;;19.47;17.27;;;1.80;88.70;;;;;;4998102;28;20187;-93
2023/01/19 01:41:26;;;;;;;17.83;16.13;;;1.80;88.90;;;;;;4997294;28;20652;-93
2023/01/19 01:43:57;;;;;;;18.37;16.40;;;1.90;88.50;;;;;;4998048;28;20675;-93
2023/01/19 01:46:23;;;;;;;19.57;17.57;;;1.80;88.70;;;;;;4997380;28;20170;-93
2023/01/19 01:49:06;;;;;;;21.33;17.47;;;1.90;88.50;;;;;;4997713;28;20210;-93
2023/01/19 01:51:53;;;;;;;20.37;17.13;;;1.90;88.80;;;;;;4997397;28;20171;-93
2023/01/19 01:54:30;;;;;;;20.27;18.13;;;1.90;88.80;;;;;;4997206;28;20587;-93
2023/01/19 01:57:01;;;;;;;27.13;21.13;;;1.90;88.90;;;;;;4997420;28;20174;-92
2023/01/19 01:59:33;;;;;;;20.80;18.77;;;1.90;88.70;;;;;;4995677;28;20253;-93
2023/01/19 02:05:05;;;;;;;18.90;16.97;;;1.90;88.60;;;;;;4997647;28;20224;-93
2023/01/19 02:13:31;;;;;;;23.93;21.30;;;2.00;88.50;;;;;;4996357;28;20798;-93
2023/01/19 02:16:01;;;;;;;18.73;16.70;;;1.90;88.60;;;;;;4995765;28;20188;-93
2023/01/19 02:18:29;;;;;;;21.10;18.87;;;2.00;88.40;;;;;;4995034;28;20168;-92
2023/01/19 02:21:19;;;;;;;21.80;19.20;;;2.00;88.40;;;;;;4994692;28;20284;-92
2023/01/19 02:23:51;;;;;;;25.33;20.47;;;2.00;88.40;;;;;;4994433;28;20240;-92
2023/01/19 02:26:42;;;;;;;23.97;20.80;;;1.90;88.70;;;;;;4994560;28;20243;-92
2023/01/19 02:29:10;;;;;;;24.50;19.90;;;1.90;88.90;;;;;;4986496;28;20214;-92
2023/01/19 02:31:38;;;;;;;22.97;19.73;;;1.80;89.10;;;;;;4994755;28;20181;-92
2023/01/19 02:34:06;;;;;;;21.47;19.17;;;1.90;89.00;;;;;;4994445;28;20201;-92
2023/01/19 02:36:53;;;;;;;19.27;16.47;;;1.90;89.10;;;;;;4995117;28;20273;-92
2023/01/19 02:39:26;;;;;;;19.00;17.23;;;2.00;88.80;;;;;;4994951;28;20185;-92
2023/01/19 02:41:56;;;;;;;29.40;20.10;;;1.90;89.30;;;;;;4994273;28;20229;-93
2023/01/19 02:44:22;;;;;;;31.43;21.87;;;2.00;89.10;;;;;;4994149;28;20213;-92
2023/01/19 02:46:48;;;;;;;25.20;18.57;;;1.90;89.20;;;;;;4994388;28;20653;-92
2023/01/19 02:49:14;;;;;;;20.00;17.97;;;1.80;89.60;;;;;;4993854;28;20198;-92
2023/01/19 02:51:42;;;;;;;23.17;19.30;;;1.90;89.60;;;;;;4994074;28;20579;-92
2023/01/19 02:54:32;;;;;;;20.40;18.50;;;1.90;89.40;;;;;;4993639;28;20204;-92
2023/01/19 02:57:20;;;;;;;22.63;18.07;;;1.90;89.70;;;;;;4993839;28;20648;-92
2023/01/19 02:59:54;;;;;;;23.17;19.70;;;1.80;89.80;;;;;;4994343;28;20193;-92
2023/01/19 03:02:28;;;;;;;28.27;22.83;;;1.90;89.50;;;;;;4997917;28;20190;-93
2023/01/19 03:05:03;;;;;;;24.47;20.30;;;1.90;89.60;;;;;;4997514;28;20201;-93
2023/01/19 03:07:40;;;;;;;23.27;19.60;;;1.80;89.70;;;;;;4997427;28;20206;-92
2023/01/19 03:10:20;;;;;;;24.97;22.43;;;1.90;89.70;;;;;;4997537;28;20162;-92
2023/01/19 03:13:04;;;;;;;25.23;20.63;;;1.90;89.80;;;;;;4997189;28;20653;-92
2023/01/19 03:15:53;;;;;;;24.77;22.13;;;1.90;89.60;;;;;;4997353;28;20165;-92
2023/01/19 03:18:23;;;;;;;23.27;20.83;;;1.90;89.60;;;;;;4997348;28;20224;-92
2023/01/19 03:20:52;;;;;;;26.73;22.63;;;1.90;89.60;;;;;;4997004;28;20201;-92
2023/01/19 03:23:19;;;;;;;27.67;20.63;;;1.90;89.70;;;;;;4996942;28;20260;-92
2023/01/19 03:25:48;;;;;;;28.47;23.50;;;1.90;89.60;;;;;;4996862;28;20181;-92
2023/01/19 03:28:18;;;;;;;32.83;24.77;;;1.90;89.90;;;;;;4996810;28;20265;-92
2023/01/19 03:30:50;;;;;;;23.33;21.03;;;1.90;89.90;;;;;;4996609;28;20171;-92
2023/01/19 03:33:27;;;;;;;36.23;29.63;;;1.90;89.80;;;;;;4997363;28;20194;-92
2023/01/19 03:35:56;;;;;;;27.50;24.03;;;1.90;89.80;;;;;;4996645;28;20201;-92
2023/01/19 03:38:25;;;;;;;26.43;23.17;;;1.90;89.80;;;;;;4996691;28;20185;-92
2023/01/19 03:40:54;;;;;;;29.13;21.60;;;1.90;89.80;;;;;;4996774;28;20264;-92
2023/01/19 03:43:22;;;;;;;25.17;19.73;;;1.90;89.90;;;;;;4996871;28;20204;-92
2023/01/19 03:45:47;;;;;;;21.63;19.50;;;1.90;89.90;;;;;;4996815;28;20184;-92
2023/01/19 03:48:13;;;;;;;27.67;22.63;;;1.90;90.10;;;;;;4996610;28;20236;-92
2023/01/19 03:50:39;;;;;;;30.77;23.60;;;1.90;90.20;;;;;;4996583;28;20181;-93
2023/01/19 03:53:11;;;;;;;27.53;23.33;;;1.90;90.30;;;;;;4996547;28;20205;-91
2023/01/19 03:55:39;;;;;;;24.60;20.67;;;1.90;90.40;;;;;;4996567;28;20539;-92
2023/01/19 03:58:05;;;;;;;25.10;22.47;;;1.90;90.50;;;;;;4996105;28;20595;-92
2023/01/19 04:00:31;;;;;;;26.47;23.77;;;1.90;90.50;;;;;;4997139;28;20178;-92
2023/01/19 04:02:57;;;;;;;21.17;19.17;;;1.90;90.60;;;;;;4995976;28;20197;-92
2023/01/19 04:05:23;;;;;;;31.23;27.50;;;1.90;90.70;;;;;;4996782;28;20188;-92
2023/01/19 04:07:49;;;;;;;25.73;22.93;;;1.90;90.70;;;;;;4995997;28;20568;-92
2023/01/19 04:10:19;;;;;;;29.63;26.43;;;2.00;90.60;;;;;;4996077;28;20232;-93
2023/01/19 04:12:45;;;;;;;36.73;31.07;;;1.90;90.60;;;;;;4995639;28;20201;-92
2023/01/19 04:15:11;;;;;;;30.13;25.23;;;2.00;90.60;;;;;;4996093;28;20547;-92
2023/01/19 04:17:37;;;;;;;29.37;24.10;;;1.90;90.80;;;;;;4995997;28;20656;-93
2023/01/19 04:20:03;;;;;;;25.63;23.23;;;1.90;90.70;;;;;;4995873;28;20252;-92
2023/01/19 04:22:29;;;;;;;26.60;23.37;;;2.00;90.80;;;;;;4996325;28;20664;-92
2023/01/19 04:24:54;;;;;;;28.73;25.70;;;1.90;90.90;;;;;;4996671;28;20194;-92
2023/01/19 04:27:20;;;;;;;34.87;29.90;;;2.00;90.90;;;;;;4995704;28;20182;-92
2023/01/19 04:29:45;;;;;;;29.40;22.17;;;2.00;90.90;;;;;;4995987;28;20171;-92
2023/01/19 04:32:12;;;;;;;30.53;23.80;;;2.00;91.00;;;;;;4995660;28;20170;-87
2023/01/19 04:34:38;;;;;;;29.83;24.77;;;2.00;91.10;;;;;;4995776;28;20285;-92
2023/01/19 04:37:03;;;;;;;33.17;29.70;;;2.00;91.10;;;;;;4995450;28;20212;-92
2023/01/19 04:39:29;;;;;;;30.07;26.83;;;2.00;91.10;;;;;;4995729;28;20174;-92
2023/01/19 04:41:56;;;;;;;30.13;26.03;;;2.00;91.10;;;;;;4995423;28;20240;-92
2023/01/19 04:44:22;;;;;;;38.20;34.17;;;2.00;91.20;;;;;;4994916;28;20236;-92
2023/01/19 04:46:48;;;;;;;38.47;28.07;;;2.10;91.20;;;;;;4995353;28;20178;-92
2023/01/19 04:49:14;;;;;;;32.60;25.83;;;2.10;91.10;;;;;;4995204;28;20273;-92
2023/01/19 04:51:39;;;;;;;25.07;21.50;;;2.10;91.20;;;;;;4995181;28;20668;-92
2023/01/19 04:54:07;;;;;;;29.00;25.87;;;2.10;91.20;;;;;;4995227;28;20193;-93
2023/01/19 04:56:33;;;;;;;27.47;23.67;;;2.10;91.20;;;;;;4995030;28;20213;-92
2023/01/19 04:58:59;;;;;;;32.27;28.60;;;2.10;91.20;;;;;;4994850;28;20189;-92
2023/01/19 05:01:25;;;;;;;27.17;22.90;;;2.10;91.20;;;;;;4994960;28;20656;-92
2023/01/19 05:03:50;;;;;;;29.87;26.77;;;2.10;91.40;;;;;;4994799;28;20212;-92
2023/01/19 05:06:16;;;;;;;35.60;28.17;;;2.10;91.40;;;;;;4995921;28;20177;-92
2023/01/19 05:08:41;;;;;;;34.83;31.13;;;2.10;91.40;;;;;;4994565;28;20206;-92
2023/01/19 05:11:07;;;;;;;33.80;28.47;;;2.10;91.50;;;;;;4994980;28;20170;-92
2023/01/19 05:13:32;;;;;;;25.40;22.60;;;2.20;91.40;;;;;;4995862;28;20198;-92
2023/01/19 05:15:58;;;;;;;31.10;27.90;;;2.10;91.40;;;;;;4994664;28;20235;-92
2023/01/19 05:18:24;;;;;;;36.43;32.50;;;2.10;91.50;;;;;;4994575;28;20181;-92
2023/01/19 05:20:49;;;;;;;28.80;25.73;;;2.10;91.60;;;;;;4994635;28;20256;-92
2023/01/19 05:23:15;;;;;;;31.17;27.87;;;2.10;91.60;;;;;;4993581;28;20703;-92
2023/01/19 05:25:42;;;;;;;29.07;26.27;;;2.10;91.60;;;;;;4994260;28;20648;-92
2023/01/19 05:28:08;;;;;;;28.70;25.87;;;2.10;91.60;;;;;;4994301;28;20202;-92
2023/01/19 05:30:33;;;;;;;36.53;28.33;;;2.00;91.70;;;;;;4994828;28;20548;-92
2023/01/19 05:32:59;;;;;;;27.50;24.80;;;2.10;91.70;;;;;;4994113;28;20194;-92
2023/01/19 05:35:24;;;;;;;36.00;30.80;;;2.10;91.90;;;;;;4994423;28;20656;-92
2023/01/19 05:37:50;;;;;;;35.07;30.23;;;2.10;91.80;;;;;;4994535;28;20209;-92
2023/01/19 05:40:15;;;;;;;34.83;30.97;;;2.10;91.90;;;;;;4994130;28;20182;-92
2023/01/19 05:42:41;;;;;;;32.93;29.40;;;2.10;92.00;;;;;;4994158;28;20178;-92
2023/01/19 05:45:07;;;;;;;28.03;25.40;;;2.10;92.10;;;;;;4994234;28;20287;-92
2023/01/19 05:47:33;;;;;;;41.13;31.47;;;2.10;92.10;;;;;;4994199;28;20263;-92
2023/01/19 05:49:58;;;;;;;37.20;32.10;;;2.10;92.10;;;;;;4993880;28;20174;-92
2023/01/19 05:52:24;;;;;;;33.20;27.50;;;2.10;92.10;;;;;;4994327;28;20181;-92
2023/01/19 05:54:50;;;;;;;35.53;30.23;;;2.10;92.20;;;;;;4993796;28;20549;-92
2023/01/19 05:57:16;;;;;;;34.73;31.23;;;2.10;92.30;;;;;;4994054;28;20179;-92
2023/01/19 05:59:42;;;;;;;32.03;28.70;;;2.00;92.40;;;;;;4994299;28;20170;-92
2023/01/19 06:02:08;;;;;;;32.53;29.40;;;2.00;92.40;;;;;;4993837;28;20178;-92
2023/01/19 06:04:33;;;;;;;31.77;28.50;;;2.10;92.40;;;;;;4994955;28;20193;-92
2023/01/19 06:06:59;;;;;;;34.90;30.13;;;2.00;92.40;;;;;;4993594;28;20629;-92
2023/01/19 06:09:24;;;;;;;40.43;36.17;;;2.10;92.60;;;;;;4993621;28;20295;-92
2023/01/19 06:11:53;;;;;;;32.67;29.33;;;2.10;92.50;;;;;;4993850;28;20185;-92
2023/01/19 06:14:18;;;;;;;30.70;27.60;;;2.10;92.50;;;;;;4994166;28;20202;-92
2023/01/19 06:16:44;;;;;;;34.07;30.63;;;2.10;92.50;;;;;;4993533;28;20182;-92
2023/01/19 06:19:09;;;;;;;26.13;23.63;;;2.00;92.40;;;;;;4993606;28;20182;-92
2023/01/19 06:21:35;;;;;;;40.73;35.90;;;2.10;92.40;;;;;;4993663;28;20229;-91
2023/01/19 06:24:00;;;;;;;31.80;28.37;;;2.10;92.40;;;;;;4993623;28;20198;-92
2023/01/19 06:26:26;;;;;;;33.53;30.27;;;2.10;92.40;;;;;;4993230;28;20549;-92
2023/01/19 06:28:51;;;;;;;33.10;29.87;;;2.00;92.40;;;;;;4993281;28;20202;-92
2023/01/19 06:31:17;;;;;;;38.03;33.57;;;2.10;92.60;;;;;;4993307;28;20232;-92
2023/01/19 06:33:43;;;;;;;30.23;27.23;;;2.10;92.70;;;;;;4993571;28;20255;-92
2023/01/19 06:36:08;;;;;;;37.07;33.37;;;2.00;92.80;;;;;;4993309;28;20190;-92
2023/01/19 06:38:34;;;;;;;31.90;28.73;;;2.00;92.80;;;;;;4993141;28;20206;-92
2023/01/19 06:41:03;;;;;;;38.80;34.90;;;2.00;92.80;;;;;;4993239;28;20182;-93
2023/01/19 06:43:30;;;;;;;40.00;36.07;;;2.00;92.90;;;;;;4993214;28;20197;-92
2023/01/19 06:45:56;;;;;;;33.33;29.93;;;2.00;92.90;;;;;;4993294;28;20224;-92
2023/01/19 06:48:21;;;;;;;41.93;37.70;;;2.00;93.00;;;;;;4993139;28;20343;-92
2023/01/19 06:50:48;;;;;;;35.87;32.40;;;2.00;93.10;;;;;;4993229;28;20261;-92
2023/01/19 06:53:15;;;;;;;37.17;33.53;;;2.00;93.10;;;;;;4993622;28;20199;-92
2023/01/19 06:55:44;;;;;;;34.87;31.33;;;2.00;93.20;;;;;;4993183;28;20183;-92
2023/01/19 06:58:10;;;;;;;33.97;30.60;;;2.00;93.20;;;;;;4993117;28;20185;-92
2023/01/19 07:00:36;;;;;;;35.43;31.60;;;2.00;93.30;;;;;;4993176;28;20232;-93
2023/01/19 07:03:01;;;;;;;34.87;31.13;;;2.00;93.30;;;;;;4993223;28;20706;-92
2023/01/19 07:05:27;;;;;;;41.10;36.73;;;2.00;93.30;;;;;;4993306;28;20201;-92
2023/01/19 07:07:54;;;;;;;40.23;36.07;;;2.00;93.40;;;;;;4992951;28;20237;-92
2023/01/19 07:10:21;;;;;;;34.03;30.70;;;2.10;93.40;;;;;;4993492;28;20174;-92
2023/01/19 07:12:47;;;;;;;32.03;28.83;;;2.10;93.30;;;;;;4993168;28;20200;-92
2023/01/19 07:15:18;;;;;;;46.17;41.27;;;2.10;93.20;;;;;;4993257;28;20285;-92
2023/01/19 07:17:44;;;;;;;31.10;28.07;;;2.10;93.10;;;;;;4993216;28;20182;-92
2023/01/19 07:20:13;;;;;;;38.50;30.30;;;2.10;93.10;;;;;;4992820;28;20178;-91
2023/01/19 07:22:42;;;;;;;44.10;37.70;;;2.10;93.10;;;;;;4992813;28;20224;-92
2023/01/19 07:25:08;;;;;;;37.60;33.57;;;2.10;93.10;;;;;;4992747;28;20185;-92
2023/01/19 07:27:34;;;;;;;30.13;27.23;;;2.10;93.00;;;;;;4992755;28;20193;-92
2023/01/19 07:30:00;;;;;;;38.90;34.57;;;2.10;92.90;;;;;;4992638;28;20635;-92
2023/01/19 07:32:26;;;;;;;43.53;37.33;;;2.20;92.90;;;;;;4992960;28;20185;-91
2023/01/19 07:34:55;;;;;;;37.77;33.10;;;2.10;92.90;;;;;;4992859;28;20194;-92
2023/01/19 07:37:20;;;;;;;39.63;32.23;;;2.20;92.70;;;;;;4993165;28;20260;-92
2023/01/19 07:39:46;;;;;;;34.20;29.80;;;2.20;92.80;;;;;;4993162;28;20213;-88
2023/01/19 07:42:12;;;;;;;39.67;34.73;;;2.20;92.80;;;;;;4993469;28;20229;-92
2023/01/19 07:44:37;;;;;;;34.30;30.57;;;2.10;92.70;;;;;;4992870;28;20261;-92
2023/01/19 07:47:05;;;;;;;30.30;27.10;;;2.20;92.70;;;;;;4995037;28;20213;-92
2023/01/19 07:49:30;;;;;;;38.27;34.13;;;2.20;92.70;;;;;;4996361;28;20202;-92
2023/01/19 07:51:56;;;;;;;35.73;32.07;;;2.20;92.70;;;;;;4997283;28;20176;-92
2023/01/19 07:54:22;;;;;;;33.50;30.13;;;2.20;92.70;;;;;;4996731;28;20197;-93
2023/01/19 07:56:47;;;;;;;44.60;39.77;;;2.20;92.70;;;;;;4996467;28;20640;-92
2023/01/19 07:59:13;;;;;;;37.97;33.83;;;2.20;92.70;;;;;;4996183;28;20209;-92
2023/01/19 08:01:39;;;;;;;40.97;36.47;;;2.20;92.70;;;;;;4996446;28;20208;-92
2023/01/19 08:04:04;;;;;;;37.40;33.43;;;2.20;92.70;;;;;;4996055;28;20675;-92
2023/01/19 08:06:35;;;;;;;44.13;39.33;;;2.20;92.80;;;;;;4996530;28;20547;-92
2023/01/19 08:09:04;;;;;;;38.50;34.40;;;2.30;92.60;;;;;;4995889;28;20228;-92
2023/01/19 08:11:30;;;;;;;44.63;37.93;;;2.20;92.70;;;;;;4996156;28;20178;-92
2023/01/19 08:13:55;;;;;;;38.77;34.83;;;2.20;92.70;;;;;;4995827;28;20194;-92
2023/01/19 08:16:21;;;;;;;35.37;31.60;;;2.20;92.70;;;;;;4995776;28;20188;-92
2023/01/19 08:18:47;;;;;;;40.93;32.40;;;2.20;92.80;;;;;;4995794;28;20191;-92
2023/01/19 08:21:12;;;;;;;42.47;36.47;;;2.20;92.80;;;;;;4995550;28;20236;-92
2023/01/19 08:23:38;;;;;;;42.60;38.00;;;2.20;92.80;;;;;;4995424;28;20588;-92
2023/01/19 08:26:41;;;;;;;37.70;33.57;;;2.30;92.80;;;;;;4995645;28;20185;-92
2023/01/19 08:29:07;;;;;;;40.40;34.00;;;2.20;92.80;;;;;;4992339;28;20280;-90
2023/01/19 08:31:32;;;;;;;38.53;34.00;;;2.30;92.90;;;;;;4996832;28;20174;-91
2023/01/19 08:33:58;;;;;;;40.83;35.13;;;2.30;92.90;;;;;;4998107;28;20695;-94
2023/01/19 08:36:24;;;;;;;38.03;33.43;;;2.20;92.90;;;;;;5016249;28;20182;-94
2023/01/19 08:38:49;;;;;;;51.27;45.73;;;2.20;93.00;;;;;;5003537;28;20193;-91
2023/01/19 08:41:15;;;;;;;42.90;38.23;;;2.30;93.00;;;;;;5037358;22;20255;-91
2023/01/19 08:43:41;;;;;;;37.10;33.33;;;2.20;93.10;;;;;;5025339;28;20261;-90
2023/01/19 08:46:06;;;;;;;41.77;37.33;;;2.20;93.20;;;;;;5021456;28;20276;-90
2023/01/19 08:48:32;;;;;;;47.23;42.20;;;2.20;93.20;;;;;;5021431;28;20224;-91
2023/01/19 08:50:59;;;;;;;41.73;37.23;;;2.20;93.20;;;;;;5021544;28;20693;-92
2023/01/19 08:53:24;;;;;;;44.03;39.10;;;2.30;93.20;;;;;;5025570;28;20182;-91
2023/01/19 08:55:56;;;;;;;45.57;40.73;;;2.30;93.20;;;;;;5025000;28;20184;-92
2023/01/19 08:58:22;;;;;;;47.30;41.90;;;2.30;93.20;;;;;;5025205;28;20154;-92
2023/01/19 09:00:51;;;;;;;38.00;33.50;;;2.30;93.20;;;;;;5026781;28;20309;-91
2023/01/19 09:03:17;;;;;;;42.73;38.23;;;2.30;93.10;;;;;;5025090;28;20204;-92
2023/01/19 09:05:42;;;;;;;44.83;38.93;;;2.30;93.10;;;;;;5020785;28;20603;-91
2023/01/19 09:08:11;;;;;;;39.63;35.50;;;2.30;93.10;;;;;;5017095;28;20209;-91
2023/01/19 09:10:38;;;;;;;39.43;35.33;;;2.30;93.00;;;;;;5016888;28;20291;-90
2023/01/19 09:13:07;;;;;;;48.50;43.47;;;2.30;93.00;;;;;;5019908;28;20170;-91
2023/01/19 09:15:34;;;;;;;43.77;39.10;;;2.30;93.00;;;;;;5024089;28;20188;-90
2023/01/19 09:18:01;;;;;;;44.40;37.53;;;2.30;93.00;;;;;;5022923;28;20181;-90
2023/01/19 09:20:29;;;;;;;49.90;43.20;;;2.30;93.00;;;;;;5024673;28;20209;-90
2023/01/19 09:22:58;;;;;;;47.97;41.90;;;2.40;92.90;;;;;;5024211;28;20615;-91
2023/01/19 09:25:24;;;;;;;40.07;36.10;;;2.40;92.90;;;;;;5017981;28;20640;-91
2023/01/19 09:27:50;;;;;;;43.50;39.03;;;2.40;92.90;;;;;;5016376;28;20211;-91
2023/01/19 09:30:16;;;;;;;51.90;45.13;;;2.30;93.00;;;;;;5016608;28;20201;-91
2023/01/19 09:32:43;;;;;;;45.90;39.57;;;2.40;93.00;;;;;;5016828;28;20188;-92
2023/01/19 09:35:09;;;;;;;39.10;35.10;;;2.40;92.90;;;;;;5028544;28;20217;-92
2023/01/19 09:37:34;;;;;;;52.10;45.40;;;2.40;92.90;;;;;;5024946;28;20185;-91
2023/01/19 09:40:00;;;;;;;40.03;36.03;;;2.50;92.80;;;;;;5019338;28;20187;-91
2023/01/19 09:42:41;;;;;;;41.07;36.63;;;2.50;92.80;;;;;;5018600;28;20669;-90
2023/01/19 09:45:21;;;;;;;45.57;40.83;;;2.50;92.70;;;;;;5016032;28;20169;-90
2023/01/19 09:47:48;;;;;;;53.43;44.83;;;2.50;92.70;;;;;;5018951;28;20197;-90
2023/01/19 09:50:26;;;;;;;48.90;43.57;;;2.60;92.70;;;;;;5018663;28;20194;-89
2023/01/19 09:53:03;;;;;;;36.43;32.67;;;2.60;92.60;;;;;;5025695;28;20189;-89
2023/01/19 09:55:29;;;;;;;35.63;32.03;;;2.60;92.40;;;;;;5021055;28;20164;-89
2023/01/19 09:57:55;;;;;;;41.73;37.23;;;2.50;92.40;;;;;;5034318;28;20193;-91
2023/01/19 10:00:23;;;;;;;46.10;41.17;;;2.60;92.50;;;;;;5039124;28;20193;-92
2023/01/19 10:02:55;;;;;;;42.73;36.57;;;2.50;92.20;;;;;;5039153;28;20185;-90
2023/01/19 10:05:41;;;;;;;39.03;34.73;;;2.60;92.20;;;;;;5038708;28;20217;-90
2023/01/19 10:08:43;;;;;;;37.40;33.67;;;2.60;92.30;;;;;;5036163;28;20208;-92
2023/01/19 10:11:33;;;;;;;36.90;33.07;;;2.60;92.40;;;;;;5039173;28;20240;-92
2023/01/19 10:13:58;;;;;;;38.43;34.40;;;2.60;92.40;;;;;;5035378;28;20189;-91
2023/01/19 10:16:53;;;;;;;40.53;36.33;;;2.70;92.40;;;;;;5037714;28;20184;-90
2023/01/19 10:19:32;;;;;;;34.13;28.57;;;2.70;92.30;;;;;;5035208;28;20244;-93
2023/01/19 10:22:02;;;;;;;42.10;37.37;;;2.70;92.20;;;;;;5038874;28;20289;-92
2023/01/19 10:24:42;;;;;;;31.57;28.47;;;2.80;92.30;;;;;;5038719;28;20162;-94
2023/01/19 10:27:29;;;;;;;40.20;36.27;;;2.80;92.50;;;;;;5035105;28;20234;-92
2023/01/19 10:29:56;;;;;;;33.03;29.37;;;2.80;92.50;;;;;;5037439;28;20178;-93
2023/01/19 10:32:25;;;;;;;41.70;37.40;;;2.80;92.40;;;;;;5038023;28;20166;-92
2023/01/19 10:34:52;;;;;;;31.70;28.77;;;2.70;92.30;;;;;;5037644;28;20189;-93
2023/01/19 10:37:17;;;;;;;39.63;35.10;;;2.80;92.30;;;;;;5038700;28;20169;-92
2023/01/19 10:39:52;;;;;;;46.80;41.77;;;2.80;92.30;;;;;;5038396;28;20150;-92
2023/01/19 10:42:21;;;;;;;43.30;38.77;;;2.80;92.30;;;;;;5029729;28;20196;-91
2023/01/19 10:44:48;;;;;;;34.27;30.93;;;2.80;92.30;;;;;;5017126;28;20187;-92
2023/01/19 10:47:19;;;;;;;35.93;32.40;;;2.80;92.40;;;;;;5028416;28;20173;-93
2023/01/19 10:49:47;;;;;;;40.10;36.07;;;2.80;92.50;;;;;;5036037;28;20220;-92
2023/01/19 10:52:27;;;;;;;37.83;33.57;;;2.80;92.40;;;;;;5035081;28;20181;-93
2023/01/19 10:54:54;;;;;;;35.53;31.50;;;2.80;92.40;;;;;;5036009;28;20157;-92
2023/01/19 10:57:30;;;;;;;37.40;33.03;;;2.80;92.30;;;;;;5036493;28;20181;-92
2023/01/19 10:59:56;;;;;;;43.70;39.27;;;2.80;92.30;;;;;;5037603;28;20208;-90
2023/01/19 11:02:27;;;;;;;30.77;27.50;;;2.90;92.30;;;;;;5037997;28;20189;-91
2023/01/19 11:04:55;;;;;;;41.03;36.80;;;2.90;92.40;;;;;;5034668;28;20182;-92
2023/01/19 11:07:34;;;;;;;39.10;35.27;;;2.80;92.50;;;;;;5034796;28;20193;-92
2023/01/19 11:10:16;;;;;;;34.13;30.50;;;2.90;92.40;;;;;;5035441;28;20200;-94
2023/01/19 11:13:00;;;;;;;37.00;33.33;;;2.90;92.50;;;;;;5037740;28;20153;-93
2023/01/19 11:15:32;;;;;;;32.93;29.80;;;2.90;92.50;;;;;;5034678;28;20181;-92
2023/01/19 11:17:58;;;;;;;34.90;31.50;;;2.90;92.40;;;;;;5035136;28;20244;-92
2023/01/19 11:20:32;;;;;;;40.30;36.17;;;2.90;92.40;;;;;;5038483;28;20182;-90
2023/01/19 11:23:16;;;;;;;38.67;34.80;;;2.90;92.40;;;;;;5041578;28;20162;-92
2023/01/19 11:25:46;;;;;;;37.70;33.90;;;2.90;92.40;;;;;;5038916;28;20178;-93
2023/01/19 11:28:26;;;;;;;39.50;35.33;;;2.90;92.30;;;;;;5039948;28;20249;-92
2023/01/19 11:31:20;;;;;;;41.47;37.17;;;2.90;92.40;;;;;;5038504;28;20205;-92
2023/01/19 11:33:51;;;;;;;39.47;35.37;;;2.90;92.50;;;;;;5039414;28;20282;-92
2023/01/19 11:36:20;;;;;;;40.20;35.97;;;3.00;92.40;;;;;;5041088;28;20200;-90
2023/01/19 11:38:52;;;;;;;33.87;30.27;;;2.90;92.50;;;;;;5041559;28;20180;-92
2023/01/19 11:41:21;;;;;;;37.03;33.33;;;3.00;92.40;;;;;;5041533;28;20205;-91
2023/01/19 11:44:19;;;;;;;39.27;33.33;;;3.00;92.40;;;;;;5041181;28;20165;-91
2023/01/19 11:46:49;;;;;;;35.93;32.27;;;3.00;92.40;;;;;;5041036;28;20201;-91
2023/01/19 11:49:23;;;;;;;33.57;30.30;;;3.00;92.50;;;;;;5039356;28;20220;-93
2023/01/19 11:52:16;;;;;;;38.67;34.77;;;3.00;92.50;;;;;;5039421;28;20196;-91
2023/01/19 11:54:54;;;;;;;41.73;37.43;;;3.00;92.50;;;;;;5026538;28;20173;-90
2023/01/19 11:57:20;;;;;;;39.57;34.03;;;3.00;92.70;;;;;;5024314;28;20546;-91
2023/01/19 11:59:45;;;;;;;41.83;37.27;;;3.00;92.60;;;;;;5024116;28;20177;-91
2023/01/19 12:02:27;;;;;;;32.33;28.93;;;3.10;92.70;;;;;;5024131;28;20212;-91
2023/01/19 12:05:00;;;;;;;36.87;33.00;;;3.10;92.70;;;;;;5023223;28;20173;-92
2023/01/19 12:07:31;;;;;;;36.50;32.40;;;3.20;92.70;;;;;;5024920;28;20193;-91
2023/01/19 12:10:12;;;;;;;38.30;30.07;;;3.20;92.70;;;;;;5024529;28;20201;-91
2023/01/19 12:12:39;;;;;;;32.77;29.63;;;3.20;92.60;;;;;;5025894;28;20170;-91
2023/01/19 12:15:35;;;;;;;33.20;29.70;;;3.20;92.50;;;;;;5025830;28;20272;-92
2023/01/19 12:18:01;;;;;;;36.43;32.83;;;3.30;92.50;;;;;;5028572;28;20186;-91
2023/01/19 12:20:41;;;;;;;41.37;34.10;;;3.30;92.50;;;;;;5027281;28;20205;-91
2023/01/19 12:23:10;;;;;;;35.20;32.00;;;3.40;92.40;;;;;;5024335;28;20173;-91
2023/01/19 12:26:07;;;;;;;40.90;36.67;;;3.30;92.40;;;;;;5021452;28;20180;-91
2023/01/19 12:28:40;;;;;;;41.37;37.10;;;3.30;92.70;;;;;;5022577;28;20193;-91
2023/01/19 12:31:07;;;;;;;44.33;39.73;;;3.30;92.80;;;;;;5022767;28;20197;-91
2023/01/19 12:33:39;;;;;;;42.03;37.63;;;3.30;93.00;;;;;;5020646;28;20264;-91
2023/01/19 12:36:34;;;;;;;35.93;32.53;;;3.30;93.10;;;;;;5020959;28;20188;-91
2023/01/19 12:39:19;;;;;;;41.27;36.87;;;3.30;93.20;;;;;;5020923;28;20272;-91
2023/01/19 12:41:46;;;;;;;37.40;33.87;;;3.30;93.20;;;;;;5020561;28;20220;-91
2023/01/19 12:44:12;;;;;;;37.90;34.40;;;3.30;93.20;;;;;;5020594;28;20205;-90
2023/01/19 12:46:40;;;;;;;38.00;34.10;;;3.30;93.30;;;;;;5020485;28;20240;-91
2023/01/19 12:49:37;;;;;;;39.70;35.53;;;3.30;93.40;;;;;;5019975;28;20247;-92
2023/01/19 12:52:10;;;;;;;44.23;39.73;;;3.30;93.40;;;;;;5018989;28;20236;-90
2023/01/19 12:54:38;;;;;;;42.90;38.30;;;3.40;93.50;;;;;;5021730;28;20177;-91
2023/01/19 12:57:16;;;;;;;39.47;35.63;;;3.40;93.40;;;;;;5020282;28;20186;-91